Andover, MN

12:16 AM CDT on March 28, 2015 (GMT -0500)
Lake John | | Change Station
CLOSE
Current Station
Personal Weather Station
Location: Annandale, MN
Elevation: 1066 ft
Nearby Weather Stations

Elev 1066 ft 45.26 °N, 94.16 °W | Updated 7 minutes ago

Mostly Cloudy
Mostly Cloudy
26.1 °F
Feels Like 26 °F
N
0.0
Wind Variable Wind from SE

Today
High -- | Low -- °F
--% Chance of Precip.
Yesterday
High -- | Low -- °F
Precip. -- in
7:04 AM 7:39 PM
First Quarter, 59% visible
Pressure 30.17 in
Visibility 10.0 miles
Clouds Overcast 8000 ft
Windchill 26 °F
Dew Point 16 °F
Humidity 66%
Rainfall 0.00 in
Snow Depth Not available.
UV 0 out of 12
Pollen 1.00 out of 12
Air Quality Not available.
Flu Activity Not available.
METAR KMGG 280516Z AUTO 00000KT 10SM OVC080 M02/M09 A3017 RMK AO2 T10251086

More Conditions Fewer Conditions

Pressure 30.17 in
Visibility 10.0 miles
Clouds Overcast 8000 ft
Windchill 26 °F
Dew Point 16 °F
Humidity 66%
Rainfall 0.00 in
Snow Depth Not available.
UV 0 out of 12
Pollen 1.00 out of 12
Air Quality Not available.
Flu Activity Not available.
METAR KMGG 280516Z AUTO 00000KT 10SM OVC080 M02/M09 A3017 RMK AO2 T10251086

More Conditions Fewer Conditions

10-Day Weather Forecast

Almanac

Astronomy

Mar. 28, 2015 Rise Set
Actual Time
Civil Twilight
Nautical Twilight
Astronomical Twilight
Moon
Length of Visible Light
Length of Day
Tomorrow will be .
, % of the Moon is Illuminated

Today's Extremes

State Highs State Lows

Community

WunderPhotos

Upload Photos

1,808,934 photos uploaded!

WunderBlogs® & News

Nearby

Air Quality

  Air Quality AQ Index Pollutant
Not available.

Snow Depth

Station Depth Elevation

Earthquake Activity

City Distance Mag. Time & Date
Minimum magnitude displayed is 2.5.

Coastal Water Temperatures

Place Temperature

Stations

Nearby Weather Stations

Station Location Temp. Windchill Dew Point Humidity Wind Precip. Elev Updated Type